Ship Status Report: callsign BAREU51

sailwx.info

Track history (hours):
 
Tides and Currents Weather Stations Pressure Air Temp Water Temp Dewpoint Dewpoint Depression Visibility Wind Speed Wind Dir Waves Ship Positions

Callsign BAREU51 (name unknown)

Last reported at 2017-Jun-24 22:00 UTC. Time now 2017-Jun-24 22:30 UTC.
Position N 38°24' E 013°12'.

Barometer 1017.4 mb
Air temperature 24.7 ° C

Date/timePositionNaut miles runAvg speedWind from/ knotsBaromVisibWave heightAir tempDewpointWater temp
2017-Jun-24 22:00N 38°24' E 013°12'2020.3 1017.4 24.7
2017-Jun-24 21:00N 38°06' E 013°24'0 0.0 1017.7 23.5
2017-Jun-24 16:00N 38°06' E 013°24'1918.6 1017.3 26.2
2017-Jun-24 15:00N 38°24' E 013°18'2322.9 1017.1 27.8
2017-Jun-24 14:00N 38°42' E 013°00'2020.3 1017.9 28.4
2017-Jun-24 13:00N 39°00' E 012°48'2322.8 1018.3 28.8
2017-Jun-24 12:00N 39°18' E 012°30'2020.2 1018.4 28.0
2017-Jun-24 11:00N 39°36' E 012°18'2322.7 1018.6 27.2
2017-Jun-24 10:00N 39°54' E 012°00'2827.7 1018.6 27.0
2017-Jun-24 09:00N 40°18' E 011°42'2020.2 1018.7 27.2
2017-Jun-24 08:00N 40°36' E 011°30'2322.6 1018.5 26.9
2017-Jun-24 07:00N 40°54' E 011°12'2322.5 1018.1 26.3
2017-Jun-24 06:00N 41°12' E 010°54'2020.1 1017.8 24.9
2017-Jun-24 05:00N 41°30' E 010°42'2222.5 1017.1 24.3
2017-Jun-24 04:00N 41°48' E 010°24'2222.4 1016.8 24.7
2017-Jun-24 03:00N 42°06' E 010°06'2020.1 1017.1 24.6
2017-Jun-24 02:00N 42°24' E 009°54'2625.6 1017.4 24.6
2017-Jun-24 01:00N 42°48' E 009°42'2424.4 1017.8 24.5
2017-Jun-24 00:00N 43°12' E 009°36'2020.0 1017.5 24.6
2017-Jun-23 23:00N 43°30' E 009°24'2020.0 1017.6 24.5
2017-Jun-23 22:00N 43°48' E 009°12'2625.5 1017.7 24.8
2017-Jun-23 21:00N 44°12' E 009°00'12 2.0 1017.5 24.7
2017-Jun-23 15:00N 44°24' E 009°00'2424.4 1018.2 27.1
2017-Jun-23 14:00N 44°00' E 009°06'2625.5 1018.5 26.8
2017-Jun-23 13:00N 43°36' E 009°18'2020.0 1018.8 27.0
2017-Jun-23 12:00N 43°18' E 009°30'2625.5 1019.3 27.0
2017-Jun-23 11:00N 42°54' E 009°42'2020.0 1020.0 28.1
2017-Jun-23 10:00N 42°36' E 009°54'2424.4 1020.3 27.6
2017-Jun-23 09:00N 42°12' E 010°00'2222.4 1020.1 27.0
2017-Jun-23 08:00N 41°54' E 010°18'2222.5 1019.8 26.2
2017-Jun-23 07:00N 41°36' E 010°36'2020.1 1019.4 25.3
2017-Jun-23 06:00N 41°18' E 010°48'2322.5 1018.9 25.2
2017-Jun-23 05:00N 41°00' E 011°06'2322.6 1018.9 24.7
2017-Jun-23 04:00N 40°42' E 011°24'2020.2 1018.6 24.4
2017-Jun-23 03:00N 40°24' E 011°36'2322.6 1018.5 24.5
2017-Jun-23 02:00N 40°06' E 011°54'2827.7 1018.6 25.0
2017-Jun-23 01:00N 39°42' E 012°12'2020.2 1019.1 25.0
2017-Jun-23 00:00N 39°24' E 012°24'2322.8 1019.5 24.9
2017-Jun-22 23:00N 39°06' E 012°42'2322.8 1019.3 25.0
2017-Jun-22 22:00N 38°48' E 013°00'2020.3 1019.5 24.8
2017-Jun-22 21:00N 38°30' E 013°12'2625.8 1019.2 24.9
2017-Jun-22 20:00N 38°06' E 013°24'0 0.0 1019.1 24.2
2017-Jun-22 16:00N 38°06' E 013°24'1918.6 1018.5 26.4
2017-Jun-22 15:00N 38°24' E 013°18'2322.9 1018.2 27.0
2017-Jun-22 14:00N 38°42' E 013°00'2020.3 1018.6 27.6
2017-Jun-22 13:00N 39°00' E 012°48'2322.8 1019.3 27.8
2017-Jun-22 12:00N 39°18' E 012°30'2322.7 1019.5 27.7
2017-Jun-22 11:00N 39°36' E 012°12'2020.2 1019.6 27.5
2017-Jun-22 10:00N 39°54' E 012°00'2322.7 1019.5 27.1
2017-Jun-22 09:00N 40°12' E 011°42'2020.2 1019.2 26.6
2017-Jun-22 08:00N 40°30' E 011°30'2322.6 1018.9 26.1
2017-Jun-22 07:00N 40°48' E 011°12'2625.7 1018.7 25.3
2017-Jun-22 06:00N 41°12' E 011°00'2322.5 1018.3 24.4
2017-Jun-22 05:00N 41°30' E 010°42'2222.5 1017.9 23.9
2017-Jun-22 04:00N 41°48' E 010°24'2020.1 1017.4 23.5
2017-Jun-22 03:00N 42°06' E 010°12'2222.4 1016.9 23.6
2017-Jun-22 02:00N 42°24' E 009°54'2020.1 1016.8 23.7
2017-Jun-22 01:00N 42°42' E 009°42'2424.4 1016.9 24.3
2017-Jun-22 00:00N 43°06' E 009°36'2020.0 1017.4 24.2
2017-Jun-21 23:00N 43°24' E 009°24'2625.5 1016.9 24.1
2017-Jun-21 22:00N 43°48' E 009°12'2020.0 1016.9 24.0
2017-Jun-21 21:00N 44°06' E 009°00'19 3.1 1017.1 23.7
2017-Jun-21 15:00N 44°24' E 008°54'2019.9 1017.2 26.4
2017-Jun-21 14:00N 44°06' E 009°06'2020.0 1017.0 26.2
2017-Jun-21 13:00N 43°48' E 009°18'2625.5 1017.2 25.9
2017-Jun-21 12:00N 43°24' E 009°30'2424.4 1017.7 27.0
2017-Jun-21 11:00N 43°00' E 009°36'2020.0 1018.1 26.9
2017-Jun-21 10:00N 42°42' E 009°48'2625.6 1018.2 26.7
2017-Jun-21 09:00N 42°18' E 010°00'2020.1 1018.1 26.4
2017-Jun-21 08:00N 42°00' E 010°12'2222.4 1017.9 25.6
2017-Jun-21 07:00N 41°42' E 010°30'2222.5 1017.7 25.2
2017-Jun-21 06:00N 41°24' E 010°48'2020.1 1017.5 24.6
2017-Jun-21 05:00N 41°06' E 011°00'2827.6 1017.4 24.0
2017-Jun-21 04:00N 40°42' E 011°18'2322.6 1017.4 23.5
2017-Jun-21 03:00N 40°24' E 011°36'2020.2 1017.5 23.6
2017-Jun-21 02:00N 40°06' E 011°48'2322.7 1017.7 24.1
2017-Jun-21 01:00N 39°48' E 012°06'2322.7 1018.0 24.2
2017-Jun-21 00:00N 39°30' E 012°24'2020.3 1018.3 24.2
2017-Jun-20 23:00N 39°12' E 012°36'2322.8 1018.9 24.2
2017-Jun-20 22:00N 38°54' E 012°54'2827.8 1019.0 24.3
2017-Jun-20 21:00N 38°30' E 013°12'2020.3 1019.1 24.2
2017-Jun-20 20:00N 38°12' E 013°24'6 1.2 1019.3 24.3
2017-Jun-20 15:00N 38°06' E 013°24'1918.6 1019.6 26.4
2017-Jun-20 14:00N 38°24' E 013°18'2322.9
2017-Jun-20 13:00N 38°42' E 013°00'2322.8 1020.4 27.1
2017-Jun-20 12:00N 39°00' E 012°42'2625.7 1020.7 26.9
2017-Jun-20 11:00N 39°24' E 012°30'2322.7 1021.1 27.1
2017-Jun-20 10:00N 39°42' E 012°12'2020.2 1021.4 26.8
2017-Jun-20 09:00N 40°00' E 012°00'2322.7 1021.1 26.3
2017-Jun-20 08:00N 40°18' E 011°42'2322.6 1020.7 25.2
2017-Jun-20 07:00N 40°36' E 011°24'2020.2 1020.3 24.8
2017-Jun-20 06:00N 40°54' E 011°12'2322.5 1019.9 23.9
2017-Jun-20 05:00N 41°12' E 010°54'2827.5 1019.6 23.3
2017-Jun-20 04:00N 41°36' E 010°36'2020.1 1019.3 22.7
2017-Jun-20 03:00N 41°54' E 010°24'2222.4 1019.2 23.0
2017-Jun-20 02:00N 42°12' E 010°06'2020.1 1019.3 23.3
2017-Jun-20 01:00N 42°30' E 009°54'2020.0 1019.1 23.9
2017-Jun-20 00:00N 42°48' E 009°42'2625.6 1019.4 23.6
2017-Jun-19 23:00N 43°12' E 009°30'2020.0 1019.8 23.5
2017-Jun-19 22:00N 43°30' E 009°18'2424.4 1019.8 23.3
2017-Jun-19 21:00N 43°54' E 009°12'2020.0 1019.6 23.7
2017-Jun-19 20:00N 44°12' E 009°00'6 1.2 1019.6 24.4
2017-Jun-19 15:00N 44°18' E 009°00'2020.0 1019.7 26.5
2017-Jun-19 14:00N 44°00' E 009°12'2625.5 1020.2 26.6
2017-Jun-19 13:00N 43°36' E 009°24'1918.5 1020.5 25.8
2017-Jun-19 12:00N 43°18' E 009°30'2625.5 1020.7 26.7
2017-Jun-19 11:00N 42°54' E 009°42'2625.6 1021.3 26.6
2017-Jun-19 10:00N 42°30' E 009°54'2020.1 1021.4 25.7
2017-Jun-19 09:00N 42°12' E 010°06'2020.1 1021.0 24.7
2017-Jun-19 08:00N 41°54' E 010°18'2222.5 1020.5 24.1
2017-Jun-19 07:00N 41°36' E 010°36'2222.5 1019.5 23.9
2017-Jun-19 06:00N 41°18' E 010°54'2625.6 1018.4 23.8
2017-Jun-19 05:00N 40°54' E 011°06'2322.6 1018.1 24.1
2017-Jun-19 04:00N 40°36' E 011°24'2322.6 1018.6 23.4
2017-Jun-19 03:00N 40°18' E 011°42'2020.2 1018.5 22.9
2017-Jun-19 02:00N 40°00' E 011°54'2322.7 1018.6 23.7
2017-Jun-19 01:00N 39°42' E 012°12'2827.7 1017.6 24.0
2017-Jun-19 00:00N 39°18' E 012°30'2020.3 1017.5 24.2
2017-Jun-18 23:00N 39°00' E 012°42'2322.8 1017.2 24.5
2017-Jun-18 22:00N 38°42' E 013°00'2020.3 1017.0 24.7
2017-Jun-18 21:00N 38°24' E 013°12'2020.3 1016.9 24.7
2017-Jun-18 20:00N 38°06' E 013°24'0 0.0 1017.0 24.4
2017-Jun-18 17:00N 38°06' E 013°24'2020.3 1016.1 26.4
2017-Jun-18 16:00N 38°24' E 013°12'2020.3 1014.9 25.2
2017-Jun-18 15:00N 38°42' E 013°00'2322.8 1015.1 25.3
2017-Jun-18 14:00N 39°00' E 012°42'2020.3 1015.3 25.1
2017-Jun-18 13:00N 39°18' E 012°30'2322.7 1015.6 25.0
2017-Jun-18 12:00N 39°36' E 012°12'2020.2 1015.5 25.3
2017-Jun-18 11:00N 39°54' E 012°00'2322.7 1015.5 25.7
2017-Jun-18 10:00N 40°12' E 011°42'2020.2 1015.7 25.5
2017-Jun-18 09:00N 40°30' E 011°30'2322.6 1016.0 25.4
2017-Jun-18 08:00N 40°48' E 011°12'2020.2 1015.1 25.7
2017-Jun-18 07:00N 41°06' E 011°00'2322.5 1015.2 25.7
2017-Jun-18 06:00N 41°24' E 010°42'2020.1 1015.0 25.0
2017-Jun-18 05:00N 41°42' E 010°30'2222.4 1014.0 24.5
2017-Jun-18 04:00N 42°00' E 010°12'2020.1 1013.8 24.5
2017-Jun-18 03:00N 42°18' E 010°00'2727.4 1014.4 25.3
2017-Jun-18 02:00N 42°42' E 009°42'1918.5 1014.0 26.1
2017-Jun-18 01:00N 43°00' E 009°36'2625.5 1014.1 26.0
2017-Jun-18 00:00N 43°24' E 009°24'1918.5 1013.9 25.8
2017-Jun-17 23:00N 43°42' E 009°18'2625.5 1014.0 25.9
2017-Jun-17 22:00N 44°06' E 009°06'20 4.0 1013.7 26.0
2017-Jun-17 17:00N 44°24' E 008°54'4 4.3 1012.3 28.6
2017-Jun-17 16:00N 44°24' E 009°00'1918.5 1012.4 27.3
2017-Jun-17 15:00N 44°06' E 009°06'2625.5 1012.4 28.5
2017-Jun-17 14:00N 43°42' E 009°18'2020.0 1012.7 28.1
2017-Jun-17 13:00N 43°24' E 009°30'2625.5 1013.0 27.2
2017-Jun-17 12:00N 43°00' E 009°42'1918.5 1013.0 27.0
2017-Jun-17 11:00N 42°42' E 009°48'2625.6 1013.2 27.2
2017-Jun-17 10:00N 42°18' E 010°00'2020.1 1013.3 27.2
2017-Jun-17 09:00N 42°00' E 010°12'2222.4 1013.0 26.0
2017-Jun-17 08:00N 41°42' E 010°30'2222.5 1013.0 25.5
2017-Jun-17 07:00N 41°24' E 010°48'2020.1 1012.9 25.0
2017-Jun-17 06:00N 41°06' E 011°00'2827.6 1013.1 24.6
2017-Jun-17 05:00N 40°42' E 011°18'2322.6 1013.0 24.4
2017-Jun-17 04:00N 40°24' E 011°36'2020.2 1012.8 23.9
2017-Jun-17 03:00N 40°06' E 011°48'2322.7 1012.9 24.3
2017-Jun-17 02:00N 39°48' E 012°06'2322.7 1013.1 24.4
2017-Jun-17 01:00N 39°30' E 012°24'2020.3 1013.5 24.8
2017-Jun-17 00:00N 39°12' E 012°36'2827.8 1014.5 25.2
2017-Jun-16 23:00N 38°48' E 012°54'2020.3 1014.9 25.0
2017-Jun-16 22:00N 38°30' E 013°06'2322.9 1015.1 25.1
2017-Jun-16 21:00N 38°12' E 013°24'6 1.2 1015.0 24.1
2017-Jun-16 16:00N 38°18' E 013°24'2322.9 1014.8 27.6
2017-Jun-16 15:00N 38°36' E 013°06'2020.3 1015.2 28.5
2017-Jun-16 14:00N 38°54' E 012°54'2322.8 1015.5 28.8
2017-Jun-16 13:00N 39°12' E 012°36'2322.8 1015.8 28.5
2017-Jun-16 12:00N 39°30' E 012°18'2020.2 1016.0 27.6
2017-Jun-16 11:00N 39°48' E 012°06'1515.1 1016.4 28.1
2017-Jun-16 10:00N 40°00' E 011°54'1515.1 1016.6 26.2
2017-Jun-16 09:00N 40°12' E 011°42'2020.2 1015.9 26.1
2017-Jun-16 08:00N 40°30' E 011°30'2827.6 1015.7 25.7
2017-Jun-16 07:00N 40°54' E 011°12'2322.5 1015.8 25.3
2017-Jun-16 06:00N 41°12' E 010°54'2020.1 1015.5 23.7
2017-Jun-16 05:00N 41°30' E 010°42'2222.5 1015.6 24.1
2017-Jun-16 04:00N 41°48' E 010°24'2222.4 1015.8 23.7
2017-Jun-16 03:00N 42°06' E 010°06'2020.1 1015.7 23.8
2017-Jun-16 02:00N 42°24' E 009°54'2625.6 1015.9 23.9
2017-Jun-16 01:00N 42°48' E 009°42'2020.0 1016.1 23.5
2017-Jun-16 00:00N 43°06' E 009°30'2424.4 1016.4 23.7
2017-Jun-15 23:00N 43°30' E 009°24'2020.0 1016.3 24.1
2017-Jun-15 22:00N 43°48' E 009°12'2424.4 1016.1 23.9
2017-Jun-15 21:00N 44°12' E 009°06'15 3.0 1015.4 24.0
2017-Jun-15 16:00N 44°24' E 008°54'1514.8 1015.4 26.7
2017-Jun-15 15:00N 44°12' E 009°06'2625.5 1015.4 26.2
2017-Jun-15 14:00N 43°48' E 009°18'2424.4 1016.0 26.0
2017-Jun-15 13:00N 43°24' E 009°24'2020.0 1016.0 26.1
2017-Jun-15 12:00N 43°06' E 009°36'2625.6 150 / 331016.4 26.4
2017-Jun-15 11:00N 42°42' E 009°48'1918.5 150 / 331016.5 27.2
2017-Jun-15 10:00N 42°24' E 009°54'2222.4 150 / 341016.3 26.0
2017-Jun-15 09:00N 42°06' E 010°12'2222.4 140 / 351015.8 25.3
2017-Jun-15 08:00N 41°48' E 010°30'2625.6 140 / 351015.3 25.1
2017-Jun-15 07:00N 41°24' E 010°42'2322.5 140 / 341015.0 23.8
2017-Jun-15 06:00N 41°06' E 011°00'2322.6 140 / 341015.0 24.3
2017-Jun-15 05:00N 40°48' E 011°18'2020.2 140 / 341015.1 24.0
2017-Jun-15 04:00N 40°30' E 011°30'2322.6 140 / 351014.9 23.4
2017-Jun-15 03:00N 40°12' E 011°48'2020.2 140 / 351014.6 23.5
2017-Jun-15 02:00N 39°54' E 012°00'2322.7 140 / 341015.0 23.5
2017-Jun-15 01:00N 39°36' E 012°18'2827.7 140 / 341015.5 24.0
2017-Jun-15 00:00N 39°12' E 012°36'2020.3 140 / 351015.9 24.3
2017-Jun-14 23:00N 38°54' E 012°48'2322.8 150 / 351015.7 24.2
2017-Jun-14 22:00N 38°36' E 013°06'   140 / 361015.4 24.1
Track history (hours):
 
Tides and Currents Weather Stations Pressure Air Temp Water Temp Dewpoint Dewpoint Depression Visibility Wind Speed Wind Dir Waves Ship Positions

Callsign BAREU51 (name unknown)

Last reported at 2017-Jun-24 22:00 UTC. Time now 2017-Jun-24 22:30 UTC.
Position N 38°24' E 013°12'.

Barometer 1017.4 mb
Air temperature 24.7 ° C

Date/timePositionNaut miles runAvg speedWind from/ knotsBaromVisibWave heightAir tempDewpointWater temp
2017-Jun-24 22:00N 38°24' E 013°12'2020.3 1017.4 24.7
2017-Jun-24 21:00N 38°06' E 013°24'0 0.0 1017.7 23.5
2017-Jun-24 16:00N 38°06' E 013°24'1918.6 1017.3 26.2
2017-Jun-24 15:00N 38°24' E 013°18'2322.9 1017.1 27.8
2017-Jun-24 14:00N 38°42' E 013°00'2020.3 1017.9 28.4
2017-Jun-24 13:00N 39°00' E 012°48'2322.8 1018.3 28.8
2017-Jun-24 12:00N 39°18' E 012°30'2020.2 1018.4 28.0
2017-Jun-24 11:00N 39°36' E 012°18'2322.7 1018.6 27.2
2017-Jun-24 10:00N 39°54' E 012°00'2827.7 1018.6 27.0
2017-Jun-24 09:00N 40°18' E 011°42'2020.2 1018.7 27.2
2017-Jun-24 08:00N 40°36' E 011°30'2322.6 1018.5 26.9
2017-Jun-24 07:00N 40°54' E 011°12'2322.5 1018.1 26.3
2017-Jun-24 06:00N 41°12' E 010°54'2020.1 1017.8 24.9
2017-Jun-24 05:00N 41°30' E 010°42'2222.5 1017.1 24.3
2017-Jun-24 04:00N 41°48' E 010°24'2222.4 1016.8 24.7
2017-Jun-24 03:00N 42°06' E 010°06'2020.1 1017.1 24.6
2017-Jun-24 02:00N 42°24' E 009°54'2625.6 1017.4 24.6
2017-Jun-24 01:00N 42°48' E 009°42'2424.4 1017.8 24.5
2017-Jun-24 00:00N 43°12' E 009°36'2020.0 1017.5 24.6
2017-Jun-23 23:00N 43°30' E 009°24'2020.0 1017.6 24.5
2017-Jun-23 22:00N 43°48' E 009°12'2625.5 1017.7 24.8
2017-Jun-23 21:00N 44°12' E 009°00'12 2.0 1017.5 24.7
2017-Jun-23 15:00N 44°24' E 009°00'2424.4 1018.2 27.1
2017-Jun-23 14:00N 44°00' E 009°06'2625.5 1018.5 26.8
2017-Jun-23 13:00N 43°36' E 009°18'2020.0 1018.8 27.0
2017-Jun-23 12:00N 43°18' E 009°30'2625.5 1019.3 27.0
2017-Jun-23 11:00N 42°54' E 009°42'2020.0 1020.0 28.1
2017-Jun-23 10:00N 42°36' E 009°54'2424.4 1020.3 27.6
2017-Jun-23 09:00N 42°12' E 010°00'2222.4 1020.1 27.0
2017-Jun-23 08:00N 41°54' E 010°18'2222.5 1019.8 26.2
2017-Jun-23 07:00N 41°36' E 010°36'2020.1 1019.4 25.3
2017-Jun-23 06:00N 41°18' E 010°48'2322.5 1018.9 25.2
2017-Jun-23 05:00N 41°00' E 011°06'2322.6 1018.9 24.7
2017-Jun-23 04:00N 40°42' E 011°24'2020.2 1018.6 24.4
2017-Jun-23 03:00N 40°24' E 011°36'2322.6 1018.5 24.5
2017-Jun-23 02:00N 40°06' E 011°54'2827.7 1018.6 25.0
2017-Jun-23 01:00N 39°42' E 012°12'2020.2 1019.1 25.0
2017-Jun-23 00:00N 39°24' E 012°24'2322.8 1019.5 24.9
2017-Jun-22 23:00N 39°06' E 012°42'2322.8 1019.3 25.0
2017-Jun-22 22:00N 38°48' E 013°00'2020.3 1019.5 24.8
2017-Jun-22 21:00N 38°30' E 013°12'2625.8 1019.2 24.9
2017-Jun-22 20:00N 38°06' E 013°24'0 0.0 1019.1 24.2
2017-Jun-22 16:00N 38°06' E 013°24'1918.6 1018.5 26.4
2017-Jun-22 15:00N 38°24' E 013°18'2322.9 1018.2 27.0
2017-Jun-22 14:00N 38°42' E 013°00'2020.3 1018.6 27.6
2017-Jun-22 13:00N 39°00' E 012°48'2322.8 1019.3 27.8
2017-Jun-22 12:00N 39°18' E 012°30'2322.7 1019.5 27.7
2017-Jun-22 11:00N 39°36' E 012°12'2020.2 1019.6 27.5
2017-Jun-22 10:00N 39°54' E 012°00'2322.7 1019.5 27.1
2017-Jun-22 09:00N 40°12' E 011°42'2020.2 1019.2 26.6
2017-Jun-22 08:00N 40°30' E 011°30'2322.6 1018.9 26.1
2017-Jun-22 07:00N 40°48' E 011°12'2625.7 1018.7 25.3
2017-Jun-22 06:00N 41°12' E 011°00'2322.5 1018.3 24.4
2017-Jun-22 05:00N 41°30' E 010°42'2222.5 1017.9 23.9
2017-Jun-22 04:00N 41°48' E 010°24'2020.1 1017.4 23.5
2017-Jun-22 03:00N 42°06' E 010°12'2222.4 1016.9 23.6
2017-Jun-22 02:00N 42°24' E 009°54'2020.1 1016.8 23.7
2017-Jun-22 01:00N 42°42' E 009°42'2424.4 1016.9 24.3
2017-Jun-22 00:00N 43°06' E 009°36'2020.0 1017.4 24.2
2017-Jun-21 23:00N 43°24' E 009°24'2625.5 1016.9 24.1
2017-Jun-21 22:00N 43°48' E 009°12'2020.0 1016.9 24.0
2017-Jun-21 21:00N 44°06' E 009°00'19 3.1 1017.1 23.7
2017-Jun-21 15:00N 44°24' E 008°54'2019.9 1017.2 26.4
2017-Jun-21 14:00N 44°06' E 009°06'2020.0 1017.0 26.2
2017-Jun-21 13:00N 43°48' E 009°18'2625.5 1017.2 25.9
2017-Jun-21 12:00N 43°24' E 009°30'2424.4 1017.7 27.0
2017-Jun-21 11:00N 43°00' E 009°36'2020.0 1018.1 26.9
2017-Jun-21 10:00N 42°42' E 009°48'2625.6 1018.2 26.7
2017-Jun-21 09:00N 42°18' E 010°00'2020.1 1018.1 26.4
2017-Jun-21 08:00N 42°00' E 010°12'2222.4 1017.9 25.6
2017-Jun-21 07:00N 41°42' E 010°30'2222.5 1017.7 25.2
2017-Jun-21 06:00N 41°24' E 010°48'2020.1 1017.5 24.6
2017-Jun-21 05:00N 41°06' E 011°00'2827.6 1017.4 24.0
2017-Jun-21 04:00N 40°42' E 011°18'2322.6 1017.4 23.5
2017-Jun-21 03:00N 40°24' E 011°36'2020.2 1017.5 23.6
2017-Jun-21 02:00N 40°06' E 011°48'2322.7 1017.7 24.1
2017-Jun-21 01:00N 39°48' E 012°06'2322.7 1018.0 24.2
2017-Jun-21 00:00N 39°30' E 012°24'2020.3 1018.3 24.2
2017-Jun-20 23:00N 39°12' E 012°36'2322.8 1018.9 24.2
2017-Jun-20 22:00N 38°54' E 012°54'2827.8 1019.0 24.3
2017-Jun-20 21:00N 38°30' E 013°12'2020.3 1019.1 24.2
2017-Jun-20 20:00N 38°12' E 013°24'6 1.2 1019.3 24.3
2017-Jun-20 15:00N 38°06' E 013°24'1918.6 1019.6 26.4
2017-Jun-20 14:00N 38°24' E 013°18'2322.9
2017-Jun-20 13:00N 38°42' E 013°00'2322.8 1020.4 27.1
2017-Jun-20 12:00N 39°00' E 012°42'2625.7 1020.7 26.9
2017-Jun-20 11:00N 39°24' E 012°30'2322.7 1021.1 27.1
2017-Jun-20 10:00N 39°42' E 012°12'2020.2 1021.4 26.8
2017-Jun-20 09:00N 40°00' E 012°00'2322.7 1021.1 26.3
2017-Jun-20 08:00N 40°18' E 011°42'2322.6 1020.7 25.2
2017-Jun-20 07:00N 40°36' E 011°24'2020.2 1020.3 24.8
2017-Jun-20 06:00N 40°54' E 011°12'2322.5 1019.9 23.9
2017-Jun-20 05:00N 41°12' E 010°54'2827.5 1019.6 23.3
2017-Jun-20 04:00N 41°36' E 010°36'2020.1 1019.3 22.7
2017-Jun-20 03:00N 41°54' E 010°24'2222.4 1019.2 23.0
2017-Jun-20 02:00N 42°12' E 010°06'2020.1 1019.3 23.3
2017-Jun-20 01:00N 42°30' E 009°54'2020.0 1019.1 23.9
2017-Jun-20 00:00N 42°48' E 009°42'2625.6 1019.4 23.6
2017-Jun-19 23:00N 43°12' E 009°30'2020.0 1019.8 23.5
2017-Jun-19 22:00N 43°30' E 009°18'2424.4 1019.8 23.3
2017-Jun-19 21:00N 43°54' E 009°12'2020.0 1019.6 23.7
2017-Jun-19 20:00N 44°12' E 009°00'6 1.2 1019.6 24.4
2017-Jun-19 15:00N 44°18' E 009°00'2020.0 1019.7 26.5
2017-Jun-19 14:00N 44°00' E 009°12'2625.5 1020.2 26.6
2017-Jun-19 13:00N 43°36' E 009°24'1918.5 1020.5 25.8
2017-Jun-19 12:00N 43°18' E 009°30'2625.5 1020.7 26.7
2017-Jun-19 11:00N 42°54' E 009°42'2625.6 1021.3 26.6
2017-Jun-19 10:00N 42°30' E 009°54'2020.1 1021.4 25.7
2017-Jun-19 09:00N 42°12' E 010°06'2020.1 1021.0 24.7
2017-Jun-19 08:00N 41°54' E 010°18'2222.5 1020.5 24.1
2017-Jun-19 07:00N 41°36' E 010°36'2222.5 1019.5 23.9
2017-Jun-19 06:00N 41°18' E 010°54'2625.6 1018.4 23.8
2017-Jun-19 05:00N 40°54' E 011°06'2322.6 1018.1 24.1
2017-Jun-19 04:00N 40°36' E 011°24'2322.6 1018.6 23.4
2017-Jun-19 03:00N 40°18' E 011°42'2020.2 1018.5 22.9
2017-Jun-19 02:00N 40°00' E 011°54'2322.7 1018.6 23.7
2017-Jun-19 01:00N 39°42' E 012°12'2827.7 1017.6 24.0
2017-Jun-19 00:00N 39°18' E 012°30'2020.3 1017.5 24.2
2017-Jun-18 23:00N 39°00' E 012°42'2322.8 1017.2 24.5
2017-Jun-18 22:00N 38°42' E 013°00'2020.3 1017.0 24.7
2017-Jun-18 21:00N 38°24' E 013°12'2020.3 1016.9 24.7
2017-Jun-18 20:00N 38°06' E 013°24'0 0.0 1017.0 24.4
2017-Jun-18 17:00N 38°06' E 013°24'2020.3 1016.1 26.4
2017-Jun-18 16:00N 38°24' E 013°12'2020.3 1014.9 25.2
2017-Jun-18 15:00N 38°42' E 013°00'2322.8 1015.1 25.3
2017-Jun-18 14:00N 39°00' E 012°42'2020.3 1015.3 25.1
2017-Jun-18 13:00N 39°18' E 012°30'2322.7 1015.6 25.0
2017-Jun-18 12:00N 39°36' E 012°12'2020.2 1015.5 25.3
2017-Jun-18 11:00N 39°54' E 012°00'2322.7 1015.5 25.7
2017-Jun-18 10:00N 40°12' E 011°42'2020.2 1015.7 25.5
2017-Jun-18 09:00N 40°30' E 011°30'2322.6 1016.0 25.4
2017-Jun-18 08:00N 40°48' E 011°12'2020.2 1015.1 25.7
2017-Jun-18 07:00N 41°06' E 011°00'2322.5 1015.2 25.7
2017-Jun-18 06:00N 41°24' E 010°42'2020.1 1015.0 25.0
2017-Jun-18 05:00N 41°42' E 010°30'2222.4 1014.0 24.5
2017-Jun-18 04:00N 42°00' E 010°12'2020.1 1013.8 24.5
2017-Jun-18 03:00N 42°18' E 010°00'2727.4 1014.4 25.3
2017-Jun-18 02:00N 42°42' E 009°42'1918.5 1014.0 26.1
2017-Jun-18 01:00N 43°00' E 009°36'2625.5 1014.1 26.0
2017-Jun-18 00:00N 43°24' E 009°24'1918.5 1013.9 25.8
2017-Jun-17 23:00N 43°42' E 009°18'2625.5 1014.0 25.9
2017-Jun-17 22:00N 44°06' E 009°06'20 4.0 1013.7 26.0
2017-Jun-17 17:00N 44°24' E 008°54'4 4.3 1012.3 28.6
2017-Jun-17 16:00N 44°24' E 009°00'1918.5 1012.4 27.3
2017-Jun-17 15:00N 44°06' E 009°06'2625.5 1012.4 28.5
2017-Jun-17 14:00N 43°42' E 009°18'2020.0 1012.7 28.1
2017-Jun-17 13:00N 43°24' E 009°30'2625.5 1013.0 27.2
2017-Jun-17 12:00N 43°00' E 009°42'1918.5 1013.0 27.0
2017-Jun-17 11:00N 42°42' E 009°48'2625.6 1013.2 27.2
2017-Jun-17 10:00N 42°18' E 010°00'2020.1 1013.3 27.2
2017-Jun-17 09:00N 42°00' E 010°12'2222.4 1013.0 26.0
2017-Jun-17 08:00N 41°42' E 010°30'2222.5 1013.0 25.5
2017-Jun-17 07:00N 41°24' E 010°48'2020.1 1012.9 25.0
2017-Jun-17 06:00N 41°06' E 011°00'2827.6 1013.1 24.6
2017-Jun-17 05:00N 40°42' E 011°18'2322.6 1013.0 24.4
2017-Jun-17 04:00N 40°24' E 011°36'2020.2 1012.8 23.9
2017-Jun-17 03:00N 40°06' E 011°48'2322.7 1012.9 24.3
2017-Jun-17 02:00N 39°48' E 012°06'2322.7 1013.1 24.4
2017-Jun-17 01:00N 39°30' E 012°24'2020.3 1013.5 24.8
2017-Jun-17 00:00N 39°12' E 012°36'2827.8 1014.5 25.2
2017-Jun-16 23:00N 38°48' E 012°54'2020.3 1014.9 25.0
2017-Jun-16 22:00N 38°30' E 013°06'2322.9 1015.1 25.1
2017-Jun-16 21:00N 38°12' E 013°24'6 1.2 1015.0 24.1
2017-Jun-16 16:00N 38°18' E 013°24'2322.9 1014.8 27.6
2017-Jun-16 15:00N 38°36' E 013°06'2020.3 1015.2 28.5
2017-Jun-16 14:00N 38°54' E 012°54'2322.8 1015.5 28.8
2017-Jun-16 13:00N 39°12' E 012°36'2322.8 1015.8 28.5
2017-Jun-16 12:00N 39°30' E 012°18'2020.2 1016.0 27.6
2017-Jun-16 11:00N 39°48' E 012°06'1515.1 1016.4 28.1
2017-Jun-16 10:00N 40°00' E 011°54'1515.1 1016.6 26.2
2017-Jun-16 09:00N 40°12' E 011°42'2020.2 1015.9 26.1
2017-Jun-16 08:00N 40°30' E 011°30'2827.6 1015.7 25.7
2017-Jun-16 07:00N 40°54' E 011°12'2322.5 1015.8 25.3
2017-Jun-16 06:00N 41°12' E 010°54'2020.1 1015.5 23.7
2017-Jun-16 05:00N 41°30' E 010°42'2222.5 1015.6 24.1
2017-Jun-16 04:00N 41°48' E 010°24'2222.4 1015.8 23.7
2017-Jun-16 03:00N 42°06' E 010°06'2020.1 1015.7 23.8
2017-Jun-16 02:00N 42°24' E 009°54'2625.6 1015.9 23.9
2017-Jun-16 01:00N 42°48' E 009°42'2020.0 1016.1 23.5
2017-Jun-16 00:00N 43°06' E 009°30'2424.4 1016.4 23.7
2017-Jun-15 23:00N 43°30' E 009°24'2020.0 1016.3 24.1
2017-Jun-15 22:00N 43°48' E 009°12'2424.4 1016.1 23.9
2017-Jun-15 21:00N 44°12' E 009°06'15 3.0 1015.4 24.0
2017-Jun-15 16:00N 44°24' E 008°54'1514.8 1015.4 26.7
2017-Jun-15 15:00N 44°12' E 009°06'2625.5 1015.4 26.2
2017-Jun-15 14:00N 43°48' E 009°18'2424.4 1016.0 26.0
2017-Jun-15 13:00N 43°24' E 009°24'2020.0 1016.0 26.1
2017-Jun-15 12:00N 43°06' E 009°36'2625.6 150 / 331016.4 26.4
2017-Jun-15 11:00N 42°42' E 009°48'1918.5 150 / 331016.5 27.2
2017-Jun-15 10:00N 42°24' E 009°54'2222.4 150 / 341016.3 26.0
2017-Jun-15 09:00N 42°06' E 010°12'2222.4 140 / 351015.8 25.3
2017-Jun-15 08:00N 41°48' E 010°30'2625.6 140 / 351015.3 25.1
2017-Jun-15 07:00N 41°24' E 010°42'2322.5 140 / 341015.0 23.8
2017-Jun-15 06:00N 41°06' E 011°00'2322.6 140 / 341015.0 24.3
2017-Jun-15 05:00N 40°48' E 011°18'2020.2 140 / 341015.1 24.0
2017-Jun-15 04:00N 40°30' E 011°30'2322.6 140 / 351014.9 23.4
2017-Jun-15 03:00N 40°12' E 011°48'2020.2 140 / 351014.6 23.5
2017-Jun-15 02:00N 39°54' E 012°00'2322.7 140 / 341015.0 23.5
2017-Jun-15 01:00N 39°36' E 012°18'2827.7 140 / 341015.5 24.0
2017-Jun-15 00:00N 39°12' E 012°36'2020.3 140 / 351015.9 24.3
2017-Jun-14 23:00N 38°54' E 012°48'2322.8 150 / 351015.7 24.2
2017-Jun-14 22:00N 38°36' E 013°06'   140 / 361015.4 24.1

Dump ship's entire track history